Time;durP1;ratioP1;P1;durP2;ratioP2;P2;SDS_P1;SDS_P2;PMS_P1;PMS_P2;Temp;Humidity;BMP_temperature;BMP_pressure;BME280_temperature;BME280_humidity;BME280_pressure;Samples;Min_cycle;Max_cycle;Signal;HPM_P1;HPM_P2
2021/11/07 00:01:26;;;;;;;;;;;;;;;;;;5130190;27;19927;-79
2021/11/07 00:03:58;;;;;;;;;;;;;;;;;;5131803;27;20356;-79
2021/11/07 00:06:30;;;;;;;;;;;;;;;;;;5131086;27;20427;-79
2021/11/07 00:09:06;;;;;;;;;;;;;;;;;;5131843;27;19984;-79
2021/11/07 00:11:35;;;;;;;;;;;;;;;;;;5131067;27;19966;-82
2021/11/07 00:14:02;;;;;;;;;;;;;;;;;;5121729;27;19927;-79
2021/11/07 00:16:32;;;;;;;;;;;;;;;;;;5133807;27;19924;-83
2021/11/07 00:19:08;;;;;;;;;;;;;;;;;;5130696;27;19974;-81
2021/11/07 00:21:42;;;;;;;;;;;;;;;;;;5131261;27;19927;-80
2021/11/07 00:24:13;;;;;;;;;;;;;;;;;;5130779;27;19997;-79
2021/11/07 00:26:47;;;;;;;;;;;;;;;;;;5131540;27;19975;-79
2021/11/07 00:29:17;;;;;;;;;;;;;;;;;;5131134;27;20419;-82
2021/11/07 00:31:50;;;;;;;;;;;;;;;;;;5131176;27;19927;-79
2021/11/07 00:37:12;;;;;;;;;;;;;;;;;;5132863;27;19928;-79
2021/11/07 00:39:46;;;;;;;;;;;;;;;;;;5131882;27;19931;-80
2021/11/07 00:42:18;;;;;;;;;;;;;;;;;;5130205;27;19981;-79
2021/11/07 00:44:52;;;;;;;;;;;;;;;;;;5130539;27;19923;-81
2021/11/07 00:47:35;;;;;;;;;;;;;;;;;;5131104;27;20423;-79
2021/11/07 00:50:09;;;;;;;;;;;;;;;;;;5131095;27;19984;-79
2021/11/07 00:52:49;;;;;;;;;;;;;;;;;;5130381;27;19927;-82
2021/11/07 00:55:22;;;;;;;;;;;;;;;;;;5130300;27;19967;-80
2021/11/07 00:57:54;;;;;;;;;;;;;;;;;;5131891;27;20278;-82
2021/11/07 01:00:28;;;;;;;;;;;;;;;;;;5130299;27;19980;-80
2021/11/07 01:02:58;;;;;;;;;;;;;;;;;;5133127;27;19976;-81
2021/11/07 01:05:27;;;;;;;;;;;;;;;;;;5129122;27;20248;-79
2021/11/07 01:07:54;;;;;;;;;;;;;;;;;;5130741;27;19934;-78
2021/11/07 01:10:24;;;;;;;;;;;;;;;;;;5130435;27;19939;-78
2021/11/07 01:12:52;;;;;;;;;;;;;;;;;;5121862;27;20011;-80
2021/11/07 01:15:19;;;;;;;;;;;;;;;;;;5129310;27;19934;-79
2021/11/07 01:17:46;;;;;;;;;;;;;;;;;;5129103;27;19931;-80
2021/11/07 01:20:14;;;;;;;;;;;;;;;;;;5129033;27;19931;-81
2021/11/07 01:22:51;;;;;;;;;;;;;;;;;;5130234;27;19928;-79
2021/11/07 01:25:19;;;;;;;;;;;;;;;;;;5130236;27;19924;-79
2021/11/07 01:27:47;;;;;;;;;;;;;;;;;;5131143;27;19974;-79
2021/11/07 01:30:18;;;;;;;;;;;;;;;;;;5128614;27;20055;-79
2021/11/07 01:32:49;;;;;;;;;;;;;;;;;;5128653;27;19933;-80
2021/11/07 01:35:20;;;;;;;;;;;;;;;;;;5131374;27;19936;-80
2021/11/07 01:37:56;;;;;;;;;;;;;;;;;;5128824;27;20323;-82
2021/11/07 01:40:26;;;;;;;;;;;;;;;;;;5130520;27;19944;-80
2021/11/07 01:42:55;;;;;;;;;;;;;;;;;;5129699;27;19935;-80
2021/11/07 01:45:26;;;;;;;;;;;;;;;;;;5129414;27;20018;-81
2021/11/07 01:47:56;;;;;;;;;;;;;;;;;;5129666;27;20378;-80
2021/11/07 01:50:23;;;;;;;;;;;;;;;;;;5127987;27;19939;-79
2021/11/07 01:52:54;;;;;;;;;;;;;;;;;;5130238;27;19934;-79
2021/11/07 01:55:22;;;;;;;;;;;;;;;;;;5129890;27;20020;-78
2021/11/07 01:57:49;;;;;;;;;;;;;;;;;;5130528;27;19934;-79
2021/11/07 02:00:20;;;;;;;;;;;;;;;;;;5131517;27;20344;-79
2021/11/07 02:02:47;;;;;;;;;;;;;;;;;;5129955;27;19927;-82
2021/11/07 02:05:14;;;;;;;;;;;;;;;;;;5130779;27;19934;-81
2021/11/07 02:07:42;;;;;;;;;;;;;;;;;;5131226;27;20241;-80
2021/11/07 02:10:11;;;;;;;;;;;;;;;;;;5129731;27;19928;-79
2021/11/07 02:12:40;;;;;;;;;;;;;;;;;;5118953;27;19928;-81
2021/11/07 02:15:08;;;;;;;;;;;;;;;;;;5128942;27;19931;-81
2021/11/07 02:17:36;;;;;;;;;;;;;;;;;;5128795;27;19923;-79
2021/11/07 02:20:05;;;;;;;;;;;;;;;;;;5129517;27;19942;-80
2021/11/07 02:22:36;;;;;;;;;;;;;;;;;;5129773;27;19938;-81
2021/11/07 02:25:03;;;;;;;;;;;;;;;;;;5128572;27;20380;-81
2021/11/07 02:27:30;;;;;;;;;;;;;;;;;;5127888;27;20256;-81
2021/11/07 02:29:57;;;;;;;;;;;;;;;;;;5128640;27;19938;-79
2021/11/07 02:32:25;;;;;;;;;;;;;;;;;;5130251;27;19934;-79
2021/11/07 02:34:53;;;;;;;;;;;;;;;;;;5129989;27;19949;-79
2021/11/07 02:37:20;;;;;;;;;;;;;;;;;;5128515;27;19923;-82
2021/11/07 02:39:49;;;;;;;;;;;;;;;;;;5129134;27;19928;-80
2021/11/07 02:42:16;;;;;;;;;;;;;;;;;;5128996;27;19934;-85
2021/11/07 02:44:44;;;;;;;;;;;;;;;;;;5129105;28;19927;-79
2021/11/07 02:47:13;;;;;;;;;;;;;;;;;;5128584;28;19928;-78
2021/11/07 02:49:41;;;;;;;;;;;;;;;;;;5127859;27;20014;-79
2021/11/07 02:52:10;;;;;;;;;;;;;;;;;;5132873;27;19970;-80
2021/11/07 02:54:38;;;;;;;;;;;;;;;;;;5132824;27;19927;-80
2021/11/07 02:57:07;;;;;;;;;;;;;;;;;;5132746;27;20017;-80
2021/11/07 02:59:37;;;;;;;;;;;;;;;;;;5133800;27;20286;-81
2021/11/07 03:02:05;;;;;;;;;;;;;;;;;;5133787;27;19932;-79
2021/11/07 03:04:34;;;;;;;;;;;;;;;;;;5134974;27;20142;-81
2021/11/07 03:07:01;;;;;;;;;;;;;;;;;;5134060;27;20359;-81
2021/11/07 03:09:29;;;;;;;;;;;;;;;;;;5132504;27;19923;-81
2021/11/07 03:11:57;;;;;;;;;;;;;;;;;;5130236;27;19927;-79
2021/11/07 03:14:28;;;;;;;;;;;;;;;;;;5124293;27;19934;-79
2021/11/07 03:16:56;;;;;;;;;;;;;;;;;;5134239;27;20365;-79
2021/11/07 03:19:25;;;;;;;;;;;;;;;;;;5131557;27;19923;-80
2021/11/07 03:21:52;;;;;;;;;;;;;;;;;;5135815;27;19927;-81
2021/11/07 03:24:20;;;;;;;;;;;;;;;;;;5133417;27;19935;-79
2021/11/07 03:26:47;;;;;;;;;;;;;;;;;;5131638;27;19938;-81
2021/11/07 03:29:15;;;;;;;;;;;;;;;;;;5132216;27;19923;-79
2021/11/07 03:31:49;;;;;;;;;;;;;;;;;;5133162;27;19935;-78
2021/11/07 03:34:23;;;;;;;;;;;;;;;;;;5131623;27;20340;-81
2021/11/07 03:36:52;;;;;;;;;;;;;;;;;;5130665;27;19923;-82
2021/11/07 03:39:20;;;;;;;;;;;;;;;;;;5133771;27;19934;-81
2021/11/07 03:41:48;;;;;;;;;;;;;;;;;;5131276;27;19934;-81
2021/11/07 03:44:16;;;;;;;;;;;;;;;;;;5130696;27;20348;-81
2021/11/07 03:46:46;;;;;;;;;;;;;;;;;;5130516;27;19935;-81
2021/11/07 03:49:13;;;;;;;;;;;;;;;;;;5132149;27;20233;-79
2021/11/07 03:51:40;;;;;;;;;;;;;;;;;;5131879;27;20408;-80
2021/11/07 03:54:09;;;;;;;;;;;;;;;;;;5132229;27;19927;-80
2021/11/07 03:56:36;;;;;;;;;;;;;;;;;;5134693;27;19927;-81
2021/11/07 03:59:03;;;;;;;;;;;;;;;;;;5134669;27;19943;-79
2021/11/07 04:01:31;;;;;;;;;;;;;;;;;;5135018;27;19938;-79
2021/11/07 04:03:59;;;;;;;;;;;;;;;;;;5135364;27;19972;-81
2021/11/07 04:06:26;;;;;;;;;;;;;;;;;;5134590;27;19923;-80
2021/11/07 04:08:54;;;;;;;;;;;;;;;;;;5134777;27;19927;-80
2021/11/07 04:11:21;;;;;;;;;;;;;;;;;;5134967;27;19923;-80
2021/11/07 04:13:48;;;;;;;;;;;;;;;;;;5122555;27;19923;-80
2021/11/07 04:16:16;;;;;;;;;;;;;;;;;;5134568;27;19923;-81
2021/11/07 04:18:44;;;;;;;;;;;;;;;;;;5134506;27;19932;-78
2021/11/07 04:21:13;;;;;;;;;;;;;;;;;;5134155;27;19934;-79
2021/11/07 04:23:40;;;;;;;;;;;;;;;;;;5134774;27;20268;-79
2021/11/07 04:26:07;;;;;;;;;;;;;;;;;;5134188;27;20279;-79
2021/11/07 04:28:35;;;;;;;;;;;;;;;;;;5134193;27;19927;-81
2021/11/07 04:31:02;;;;;;;;;;;;;;;;;;5133792;27;19927;-82
2021/11/07 04:33:29;;;;;;;;;;;;;;;;;;5134238;27;19927;-79
2021/11/07 04:35:56;;;;;;;;;;;;;;;;;;5134160;27;20657;-79
2021/11/07 04:38:25;;;;;;;;;;;;;;;;;;5133961;27;20441;-79
2021/11/07 04:40:52;;;;;;;;;;;;;;;;;;5134217;27;20004;-81
2021/11/07 04:43:19;;;;;;;;;;;;;;;;;;5133928;27;19924;-79
2021/11/07 04:45:47;;;;;;;;;;;;;;;;;;5134189;27;19942;-80
2021/11/07 04:48:14;;;;;;;;;;;;;;;;;;5134181;27;19931;-82
2021/11/07 04:50:41;;;;;;;;;;;;;;;;;;5133834;27;19923;-81
2021/11/07 04:53:10;;;;;;;;;;;;;;;;;;5133562;27;20344;-81
2021/11/07 04:55:39;;;;;;;;;;;;;;;;;;5134249;27;19984;-79
2021/11/07 04:58:06;;;;;;;;;;;;;;;;;;5134218;27;20426;-79
2021/11/07 05:00:33;;;;;;;;;;;;;;;;;;5134152;27;20379;-79
2021/11/07 05:03:02;;;;;;;;;;;;;;;;;;5133479;27;19923;-79
2021/11/07 05:05:30;;;;;;;;;;;;;;;;;;5133748;27;20003;-79
2021/11/07 05:07:57;;;;;;;;;;;;;;;;;;5132951;27;20279;-79
2021/11/07 05:10:24;;;;;;;;;;;;;;;;;;5133284;27;20252;-79
2021/11/07 05:12:53;;;;;;;;;;;;;;;;;;5121118;27;19927;-80
2021/11/07 05:15:20;;;;;;;;;;;;;;;;;;5133035;27;19923;-81
2021/11/07 05:17:48;;;;;;;;;;;;;;;;;;5133709;27;20267;-80
2021/11/07 05:20:15;;;;;;;;;;;;;;;;;;5133683;27;20022;-79
2021/11/07 05:22:42;;;;;;;;;;;;;;;;;;5133138;27;19934;-80
2021/11/07 05:25:11;;;;;;;;;;;;;;;;;;5132971;27;19927;-79
2021/11/07 05:27:38;;;;;;;;;;;;;;;;;;5133283;27;19934;-81
2021/11/07 05:30:08;;;;;;;;;;;;;;;;;;5132917;27;19932;-81
2021/11/07 05:32:35;;;;;;;;;;;;;;;;;;5132653;27;19935;-79
2021/11/07 05:35:02;;;;;;;;;;;;;;;;;;5132809;27;19927;-79
2021/11/07 05:37:29;;;;;;;;;;;;;;;;;;5132526;27;19927;-79
2021/11/07 05:39:56;;;;;;;;;;;;;;;;;;5132601;27;19927;-79
2021/11/07 05:42:24;;;;;;;;;;;;;;;;;;5133109;27;19923;-80
2021/11/07 05:44:51;;;;;;;;;;;;;;;;;;5132706;27;19923;-79
2021/11/07 05:47:19;;;;;;;;;;;;;;;;;;5132875;27;19923;-79
2021/11/07 05:49:46;;;;;;;;;;;;;;;;;;5132775;27;20006;-79
2021/11/07 05:52:13;;;;;;;;;;;;;;;;;;5132859;27;20236;-80
2021/11/07 05:54:40;;;;;;;;;;;;;;;;;;5132917;27;19923;-80
2021/11/07 05:57:07;;;;;;;;;;;;;;;;;;5132368;27;19923;-80
2021/11/07 05:59:35;;;;;;;;;;;;;;;;;;5132283;27;19964;-80
2021/11/07 06:02:02;;;;;;;;;;;;;;;;;;5132669;27;19940;-86
2021/11/07 06:04:33;;;;;;;;;;;;;;;;;;5131586;27;20406;-79
2021/11/07 06:07:00;;;;;;;;;;;;;;;;;;5132097;27;19927;-79
2021/11/07 06:09:27;;;;;;;;;;;;;;;;;;5132254;27;19927;-80
2021/11/07 06:11:54;;;;;;;;;;;;;;;;;;5128571;27;19928;-79
2021/11/07 06:14:21;;;;;;;;;;;;;;;;;;5124041;27;19923;-79
2021/11/07 06:16:48;;;;;;;;;;;;;;;;;;5132296;27;20268;-79
2021/11/07 06:19:15;;;;;;;;;;;;;;;;;;5132264;27;19950;-79
2021/11/07 06:21:46;;;;;;;;;;;;;;;;;;5132599;27;19927;-79
2021/11/07 06:24:15;;;;;;;;;;;;;;;;;;5132075;27;20013;-79
2021/11/07 06:26:42;;;;;;;;;;;;;;;;;;5132119;27;19938;-78
2021/11/07 06:29:09;;;;;;;;;;;;;;;;;;5131865;27;19928;-79
2021/11/07 06:31:36;;;;;;;;;;;;;;;;;;5131972;27;19923;-79
2021/11/07 06:34:05;;;;;;;;;;;;;;;;;;5132226;27;19923;-79
2021/11/07 06:36:32;;;;;;;;;;;;;;;;;;5130074;27;19940;-79
2021/11/07 06:39:01;;;;;;;;;;;;;;;;;;5117025;27;19928;-79
2021/11/07 06:41:28;;;;;;;;;;;;;;;;;;5131153;27;20377;-79
2021/11/07 06:43:56;;;;;;;;;;;;;;;;;;5132454;27;19952;-79
2021/11/07 06:46:23;;;;;;;;;;;;;;;;;;5132030;27;19924;-78
2021/11/07 06:48:50;;;;;;;;;;;;;;;;;;5132033;28;19995;-79
2021/11/07 06:51:18;;;;;;;;;;;;;;;;;;5132186;28;19927;-80
2021/11/07 06:53:45;;;;;;;;;;;;;;;;;;5131648;28;20030;-82
2021/11/07 06:56:14;;;;;;;;;;;;;;;;;;5115229;28;19924;-81
2021/11/07 06:58:41;;;;;;;;;;;;;;;;;;5110622;28;20367;-81
2021/11/07 07:01:08;;;;;;;;;;;;;;;;;;5110859;28;19930;-81
2021/11/07 07:03:35;;;;;;;;;;;;;;;;;;5111350;28;20276;-80
2021/11/07 07:06:03;;;;;;;;;;;;;;;;;;5110876;28;19928;-80
2021/11/07 07:08:39;;;;;;;;;;;;;;;;;;5110565;28;20403;-80
2021/11/07 07:11:10;;;;;;;;;;;;;;;;;;5110764;28;19932;-80
2021/11/07 07:13:44;;;;;;;;;;;;;;;;;;5110793;28;20014;-79
2021/11/07 07:16:21;;;;;;;;;;;;;;;;;;5110271;28;20296;-79
2021/11/07 07:18:57;;;;;;;;;;;;;;;;;;5110245;28;19924;-79
2021/11/07 07:21:39;;;;;;;;;;;;;;;;;;5109594;28;19928;-79
2021/11/07 07:24:34;;;;;;;;;;;;;;;;;;5110438;28;19928;-79
2021/11/07 07:29:56;;;;;;;;;;;;;;;;;;5075538;28;19935;-82
2021/11/07 07:35:05;;;;;;;;;;;;;;;;;;5103243;28;19924;-79
2021/11/07 07:37:33;;;;;;;;;;;;;;;;;;5113703;28;20019;-79
2021/11/07 07:40:00;;;;;;;;;;;;;;;;;;5114568;28;19935;-79
2021/11/07 07:42:30;;;;;;;;;;;;;;;;;;5114637;28;19955;-79
2021/11/07 07:44:59;;;;;;;;;;;;;;;;;;5114431;28;19928;-80
2021/11/07 07:47:26;;;;;;;;;;;;;;;;;;5114789;28;20293;-79
2021/11/07 07:49:53;;;;;;;;;;;;;;;;;;5114591;28;19923;-79
2021/11/07 07:52:24;;;;;;;;;;;;;;;;;;5113629;28;19986;-78
2021/11/07 07:54:52;;;;;;;;;;;;;;;;;;5119315;27;19927;-79
2021/11/07 07:57:19;;;;;;;;;;;;;;;;;;5134639;27;19930;-81
2021/11/07 07:59:46;;;;;;;;;;;;;;;;;;5134816;27;20284;-81
2021/11/07 08:02:14;;;;;;;;;;;;;;;;;;5124011;27;19947;-79
2021/11/07 08:04:41;;;;;;;;;;;;;;;;;;5114095;28;19927;-79
2021/11/07 08:07:09;;;;;;;;;;;;;;;;;;5127154;27;20255;-79
2021/11/07 08:09:36;;;;;;;;;;;;;;;;;;5134811;27;19928;-79
2021/11/07 08:12:03;;;;;;;;;;;;;;;;;;5135088;27;19923;-79
2021/11/07 08:14:30;;;;;;;;;;;;;;;;;;5121457;27;19924;-79
2021/11/07 08:16:57;;;;;;;;;;;;;;;;;;5114433;28;19928;-79
2021/11/07 08:19:26;;;;;;;;;;;;;;;;;;5113259;28;19963;-79
2021/11/07 08:21:53;;;;;;;;;;;;;;;;;;5127324;27;19923;-79
2021/11/07 08:24:20;;;;;;;;;;;;;;;;;;5133957;27;19934;-81
2021/11/07 08:26:48;;;;;;;;;;;;;;;;;;5123925;27;20375;-82
2021/11/07 08:29:17;;;;;;;;;;;;;;;;;;5130120;27;20006;-81
2021/11/07 08:31:48;;;;;;;;;;;;;;;;;;5118846;27;19923;-82
2021/11/07 08:34:15;;;;;;;;;;;;;;;;;;5134133;27;20310;-82
2021/11/07 08:36:51;;;;;;;;;;;;;;;;;;5133499;27;19935;-82
2021/11/07 08:39:20;;;;;;;;;;;;;;;;;;5123094;27;19984;-82
2021/11/07 08:41:54;;;;;;;;;;;;;;;;;;5129133;27;19928;-82
2021/11/07 09:00:56;;;;;;;;;;;;;;;;;;5128604;27;20413;-80
2021/11/07 09:08:50;;;;;;;;;;;;;;;;;;5133726;27;19934;-79
2021/11/07 09:11:18;;;;;;;;;;;;;;;;;;5133866;27;19938;-79
2021/11/07 09:13:46;;;;;;;;;;;;;;;;;;5126251;27;20330;-81
2021/11/07 09:16:14;;;;;;;;;;;;;;;;;;5113000;28;19974;-81
2021/11/07 09:18:41;;;;;;;;;;;;;;;;;;5112779;28;19923;-79
2021/11/07 09:21:10;;;;;;;;;;;;;;;;;;5115954;27;20284;-79
2021/11/07 09:23:42;;;;;;;;;;;;;;;;;;5126193;27;19931;-81
2021/11/07 09:26:24;;;;;;;;;;;;;;;;;;5112907;28;19942;-80
2021/11/07 09:28:57;;;;;;;;;;;;;;;;;;5112477;28;19928;-80
2021/11/07 09:31:42;;;;;;;;;;;;;;;;;;5117599;27;19924;-79
2021/11/07 09:34:17;;;;;;;;;;;;;;;;;;5154400;27;20251;-80
2021/11/07 09:36:48;;;;;;;;;;;;;;;;;;5152993;27;19963;-82
2021/11/07 09:39:29;;;;;;;;;;;;;;;;;;5153427;27;19931;-82
2021/11/07 09:42:23;;;;;;;;;;;;;;;;;;5153689;27;19930;-79
2021/11/07 09:44:50;;;;;;;;;;;;;;;;;;5118249;27;19927;-81
2021/11/07 09:47:17;;;;;;;;;;;;;;;;;;5120588;27;19932;-82
2021/11/07 09:49:46;;;;;;;;;;;;;;;;;;5112160;28;19923;-80
2021/11/07 09:52:18;;;;;;;;;;;;;;;;;;5124819;27;19934;-79
2021/11/07 09:54:49;;;;;;;;;;;;;;;;;;5132750;27;19984;-81
2021/11/07 09:57:21;;;;;;;;;;;;;;;;;;5132672;27;19957;-80
2021/11/07 09:59:53;;;;;;;;;;;;;;;;;;5132051;27;20332;-81
2021/11/07 10:02:21;;;;;;;;;;;;;;;;;;5133234;27;19934;-80
2021/11/07 10:04:49;;;;;;;;;;;;;;;;;;5132929;27;19988;-83
2021/11/07 10:07:17;;;;;;;;;;;;;;;;;;5132534;27;20401;-81
2021/11/07 10:09:46;;;;;;;;;;;;;;;;;;5132776;27;19923;-81
2021/11/07 10:12:16;;;;;;;;;;;;;;;;;;5132864;27;20271;-82
2021/11/07 10:14:48;;;;;;;;;;;;;;;;;;5117499;27;19927;-81
2021/11/07 10:17:27;;;;;;;;;;;;;;;;;;5112443;28;19924;-81
2021/11/07 10:20:02;;;;;;;;;;;;;;;;;;5112228;28;20346;-81
2021/11/07 10:22:31;;;;;;;;;;;;;;;;;;5112223;28;20334;-81
2021/11/07 10:24:59;;;;;;;;;;;;;;;;;;5112388;28;19981;-81
2021/11/07 10:27:26;;;;;;;;;;;;;;;;;;5111969;28;20424;-81
2021/11/07 10:30:07;;;;;;;;;;;;;;;;;;5113098;28;20364;-82
2021/11/07 10:32:42;;;;;;;;;;;;;;;;;;5112509;28;20010;-82
2021/11/07 10:35:41;;;;;;;;;;;;;;;;;;5111745;28;19938;-79
2021/11/07 10:38:26;;;;;;;;;;;;;;;;;;5111532;28;19923;-79
2021/11/07 10:41:10;;;;;;;;;;;;;;;;;;5112580;28;19950;-80
2021/11/07 10:43:46;;;;;;;;;;;;;;;;;;5112193;28;19931;-80
2021/11/07 10:46:54;;;;;;;;;;;;;;;;;;5112013;28;19985;-79
2021/11/07 10:52:19;;;;;;;;;;;;;;;;;;5112285;28;19934;-81
2021/11/07 10:54:46;;;;;;;;;;;;;;;;;;5107707;28;19924;-81
2021/11/07 10:57:17;;;;;;;;;;;;;;;;;;5091365;28;20345;-80
2021/11/07 11:00:05;;;;;;;;;;;;;;;;;;5091426;28;19924;-82
2021/11/07 11:02:35;;;;;;;;;;;;;;;;;;5091406;28;20435;-78
2021/11/07 11:05:04;;;;;;;;;;;;;;;;;;5091622;28;19928;-81
2021/11/07 11:07:31;;;;;;;;;;;;;;;;;;5090997;28;19932;-80
2021/11/07 11:10:19;;;;;;;;;;;;;;;;;;5090947;28;19928;-80
2021/11/07 11:13:08;;;;;;;;;;;;;;;;;;5105527;28;20322;-81
2021/11/07 11:15:41;;;;;;;;;;;;;;;;;;5095382;28;19942;-78
2021/11/07 11:18:22;;;;;;;;;;;;;;;;;;5095391;28;19932;-80
2021/11/07 11:21:09;;;;;;;;;;;;;;;;;;5080842;28;20411;-80
2021/11/07 11:23:46;;;;;;;;;;;;;;;;;;5095285;28;20315;-80
2021/11/07 11:26:18;;;;;;;;;;;;;;;;;;5095146;28;19940;-79
2021/11/07 11:28:58;;;;;;;;;;;;;;;;;;5095191;28;19928;-79
2021/11/07 11:31:29;;;;;;;;;;;;;;;;;;5094976;28;20032;-79
2021/11/07 11:34:01;;;;;;;;;;;;;;;;;;5094965;28;19924;-81
2021/11/07 11:36:31;;;;;;;;;;;;;;;;;;5094798;28;19932;-82
2021/11/07 11:39:04;;;;;;;;;;;;;;;;;;5094604;28;20426;-81
2021/11/07 11:41:39;;;;;;;;;;;;;;;;;;5094808;28;20001;-81
2021/11/07 11:44:07;;;;;;;;;;;;;;;;;;5095198;28;19935;-80
2021/11/07 11:46:43;;;;;;;;;;;;;;;;;;5094505;28;19924;-80
2021/11/07 11:49:43;;;;;;;;;;;;;;;;;;5094861;28;19924;-81
2021/11/07 11:52:26;;;;;;;;;;;;;;;;;;5094640;28;19924;-80
2021/11/07 11:55:22;;;;;;;;;;;;;;;;;;5099357;28;19927;-80
2021/11/07 11:58:01;;;;;;;;;;;;;;;;;;5114594;28;19928;-79
2021/11/07 12:00:37;;;;;;;;;;;;;;;;;;5115077;28;20364;-79
2021/11/07 12:03:10;;;;;;;;;;;;;;;;;;5115711;28;19928;-80
2021/11/07 12:05:43;;;;;;;;;;;;;;;;;;5116213;28;19928;-78
2021/11/07 12:08:24;;;;;;;;;;;;;;;;;;5114626;28;19949;-80
2021/11/07 12:10:58;;;;;;;;;;;;;;;;;;5114487;28;20252;-80
2021/11/07 12:13:37;;;;;;;;;;;;;;;;;;5127006;27;19957;-81
2021/11/07 12:16:10;;;;;;;;;;;;;;;;;;5114570;28;19924;-79
2021/11/07 12:19:03;;;;;;;;;;;;;;;;;;5114736;28;19928;-79
2021/11/07 12:21:45;;;;;;;;;;;;;;;;;;5098847;28;19934;-79
2021/11/07 12:24:13;;;;;;;;;;;;;;;;;;5101288;28;19931;-79
2021/11/07 12:26:41;;;;;;;;;;;;;;;;;;5114507;28;19923;-79
2021/11/07 12:29:08;;;;;;;;;;;;;;;;;;5114416;28;19927;-81
2021/11/07 12:31:35;;;;;;;;;;;;;;;;;;5114261;28;19935;-81
2021/11/07 12:34:06;;;;;;;;;;;;;;;;;;5114092;28;20379;-80
2021/11/07 12:36:50;;;;;;;;;;;;;;;;;;5114558;28;19927;-81
2021/11/07 12:42:17;;;;;;;;;;;;;;;;;;5114316;28;19930;-80
2021/11/07 12:44:47;;;;;;;;;;;;;;;;;;5114224;28;19931;-79
2021/11/07 12:47:15;;;;;;;;;;;;;;;;;;5113996;28;20022;-81
2021/11/07 12:49:55;;;;;;;;;;;;;;;;;;5113781;28;19939;-81
2021/11/07 12:52:22;;;;;;;;;;;;;;;;;;5113891;28;19931;-78
2021/11/07 12:54:50;;;;;;;;;;;;;;;;;;5109503;28;19923;-79
2021/11/07 12:57:19;;;;;;;;;;;;;;;;;;5093651;28;20380;-79
2021/11/07 12:59:47;;;;;;;;;;;;;;;;;;5094060;28;19935;-79
2021/11/07 13:02:23;;;;;;;;;;;;;;;;;;5094028;28;19924;-78
2021/11/07 13:04:55;;;;;;;;;;;;;;;;;;5093809;28;20025;-79
2021/11/07 13:07:24;;;;;;;;;;;;;;;;;;5093579;28;19977;-79
2021/11/07 13:09:58;;;;;;;;;;;;;;;;;;5093146;28;19924;-80
2021/11/07 13:12:28;;;;;;;;;;;;;;;;;;5101160;28;20503;-80
2021/11/07 13:26:28;;;;;;;;;;;;;;;;;;5112466;28;19998;-81
2021/11/07 13:29:09;;;;;;;;;;;;;;;;;;5114161;28;19934;-81
2021/11/07 13:31:45;;;;;;;;;;;;;;;;;;5113670;28;19924;-80
2021/11/07 13:34:17;;;;;;;;;;;;;;;;;;5113034;28;20344;-80
2021/11/07 13:36:46;;;;;;;;;;;;;;;;;;5112886;28;19939;-80
2021/11/07 13:39:21;;;;;;;;;;;;;;;;;;5112626;28;19931;-79
2021/11/07 13:41:52;;;;;;;;;;;;;;;;;;5112677;28;19938;-79
2021/11/07 13:44:23;;;;;;;;;;;;;;;;;;5112862;28;20334;-81
2021/11/07 13:46:52;;;;;;;;;;;;;;;;;;5112988;28;19934;-81
2021/11/07 13:49:19;;;;;;;;;;;;;;;;;;5113220;28;20129;-81
2021/11/07 13:51:52;;;;;;;;;;;;;;;;;;5113161;28;19923;-82
2021/11/07 13:54:19;;;;;;;;;;;;;;;;;;5113084;28;19961;-82
2021/11/07 13:56:47;;;;;;;;;;;;;;;;;;5134024;27;20014;-81
2021/11/07 13:59:28;;;;;;;;;;;;;;;;;;5134733;27;19923;-80
2021/11/07 14:01:55;;;;;;;;;;;;;;;;;;5133591;27;19923;-80
2021/11/07 14:04:22;;;;;;;;;;;;;;;;;;5133823;27;19923;-81
2021/11/07 14:06:50;;;;;;;;;;;;;;;;;;5132176;27;19931;-83
2021/11/07 14:09:18;;;;;;;;;;;;;;;;;;5133447;27;19935;-82
2021/11/07 14:11:48;;;;;;;;;;;;;;;;;;5133368;27;19923;-84
2021/11/07 14:14:18;;;;;;;;;;;;;;;;;;5133134;27;20356;-81
2021/11/07 14:16:49;;;;;;;;;;;;;;;;;;5133239;27;19974;-80
2021/11/07 14:19:17;;;;;;;;;;;;;;;;;;5132898;27;19934;-81
2021/11/07 14:21:46;;;;;;;;;;;;;;;;;;5132790;27;19924;-81
2021/11/07 14:24:16;;;;;;;;;;;;;;;;;;5134256;27;19927;-80
2021/11/07 14:26:48;;;;;;;;;;;;;;;;;;5133111;27;20309;-80
2021/11/07 14:29:20;;;;;;;;;;;;;;;;;;5133182;27;19927;-79
2021/11/07 14:31:54;;;;;;;;;;;;;;;;;;5133008;27;19927;-79
2021/11/07 14:34:25;;;;;;;;;;;;;;;;;;5133106;27;19934;-81
2021/11/07 14:36:57;;;;;;;;;;;;;;;;;;5132779;27;19923;-80
2021/11/07 14:39:36;;;;;;;;;;;;;;;;;;5135176;27;20344;-80
2021/11/07 14:42:07;;;;;;;;;;;;;;;;;;5130430;27;19934;-80
2021/11/07 14:44:39;;;;;;;;;;;;;;;;;;5131073;27;19931;-81
2021/11/07 14:47:28;;;;;;;;;;;;;;;;;;5111002;28;19924;-80
2021/11/07 14:50:14;;;;;;;;;;;;;;;;;;5125805;27;20423;-80
2021/11/07 14:52:58;;;;;;;;;;;;;;;;;;5132395;28;20397;-80
2021/11/07 14:55:29;;;;;;;;;;;;;;;;;;5132103;27;19924;-79
2021/11/07 14:58:15;;;;;;;;;;;;;;;;;;5132465;28;19977;-80
2021/11/07 15:00:51;;;;;;;;;;;;;;;;;;5132100;28;20366;-80
2021/11/07 15:03:21;;;;;;;;;;;;;;;;;;5132196;28;20249;-79
2021/11/07 15:06:08;;;;;;;;;;;;;;;;;;5132160;28;19934;-80
2021/11/07 15:08:46;;;;;;;;;;;;;;;;;;5131687;28;19923;-79
2021/11/07 15:11:28;;;;;;;;;;;;;;;;;;5132134;28;20003;-78
2021/11/07 15:13:58;;;;;;;;;;;;;;;;;;5111961;28;19923;-78
2021/11/07 15:16:29;;;;;;;;;;;;;;;;;;5111650;28;19976;-78
2021/11/07 15:19:01;;;;;;;;;;;;;;;;;;5111783;28;20385;-79
2021/11/07 15:21:36;;;;;;;;;;;;;;;;;;5111671;28;19928;-79
2021/11/07 15:24:07;;;;;;;;;;;;;;;;;;5111477;28;19935;-80
2021/11/07 15:26:37;;;;;;;;;;;;;;;;;;5111619;28;19931;-80
2021/11/07 15:29:06;;;;;;;;;;;;;;;;;;5111542;28;19924;-80
2021/11/07 15:31:34;;;;;;;;;;;;;;;;;;5110831;28;19927;-80
2021/11/07 15:34:03;;;;;;;;;;;;;;;;;;5111512;28;19977;-79
2021/11/07 15:36:33;;;;;;;;;;;;;;;;;;5110905;28;19978;-80
2021/11/07 15:39:01;;;;;;;;;;;;;;;;;;5111386;28;19931;-79
2021/11/07 15:41:28;;;;;;;;;;;;;;;;;;5111267;28;19934;-80
2021/11/07 15:43:56;;;;;;;;;;;;;;;;;;5111463;28;19923;-80
2021/11/07 15:46:23;;;;;;;;;;;;;;;;;;5110998;28;19935;-80
2021/11/07 15:48:51;;;;;;;;;;;;;;;;;;5111221;28;20014;-80
2021/11/07 15:51:27;;;;;;;;;;;;;;;;;;5111082;28;20376;-80
2021/11/07 15:54:04;;;;;;;;;;;;;;;;;;5111247;28;19928;-80
2021/11/07 15:56:36;;;;;;;;;;;;;;;;;;5129455;27;19927;-81
2021/11/07 16:01:53;;;;;;;;;;;;;;;;;;5135985;27;20363;-79
2021/11/07 16:04:43;;;;;;;;;;;;;;;;;;5135506;27;20355;-79
2021/11/07 16:07:15;;;;;;;;;;;;;;;;;;5134731;27;19933;-79
2021/11/07 16:09:57;;;;;;;;;;;;;;;;;;5135077;27;20026;-79
2021/11/07 16:12:28;;;;;;;;;;;;;;;;;;5135067;27;19935;-80
2021/11/07 16:15:13;;;;;;;;;;;;;;;;;;5128127;27;19923;-80
2021/11/07 16:17:43;;;;;;;;;;;;;;;;;;5135116;27;20022;-79
2021/11/07 16:20:13;;;;;;;;;;;;;;;;;;5135127;27;19927;-79
2021/11/07 16:22:46;;;;;;;;;;;;;;;;;;5134577;27;19923;-78
2021/11/07 16:25:14;;;;;;;;;;;;;;;;;;5134854;27;19928;-78
2021/11/07 16:27:43;;;;;;;;;;;;;;;;;;5134842;27;19943;-78
2021/11/07 16:30:14;;;;;;;;;;;;;;;;;;5135127;27;20034;-78
2021/11/07 16:32:49;;;;;;;;;;;;;;;;;;5135479;27;19924;-79
2021/11/07 16:35:24;;;;;;;;;;;;;;;;;;5134701;27;19963;-79
2021/11/07 16:37:56;;;;;;;;;;;;;;;;;;5134289;27;19932;-79
2021/11/07 16:40:27;;;;;;;;;;;;;;;;;;5135064;27;20359;-79
2021/11/07 16:42:56;;;;;;;;;;;;;;;;;;5134693;27;19930;-79
2021/11/07 16:45:23;;;;;;;;;;;;;;;;;;5134550;27;19927;-78
2021/11/07 16:47:56;;;;;;;;;;;;;;;;;;5134628;27;20263;-78
2021/11/07 16:50:28;;;;;;;;;;;;;;;;;;5134365;27;20001;-79
2021/11/07 16:53:00;;;;;;;;;;;;;;;;;;5134721;27;19923;-79
2021/11/07 16:55:33;;;;;;;;;;;;;;;;;;5133931;27;19923;-78
2021/11/07 16:58:00;;;;;;;;;;;;;;;;;;5134473;27;19931;-79
2021/11/07 17:00:30;;;;;;;;;;;;;;;;;;5134252;27;20385;-79
2021/11/07 17:03:00;;;;;;;;;;;;;;;;;;5134619;27;19927;-78
2021/11/07 17:05:30;;;;;;;;;;;;;;;;;;5134113;27;20256;-78
2021/11/07 17:08:04;;;;;;;;;;;;;;;;;;5133910;27;19931;-79
2021/11/07 17:10:33;;;;;;;;;;;;;;;;;;5133370;27;20352;-78
2021/11/07 17:13:02;;;;;;;;;;;;;;;;;;5121669;27;19957;-78
2021/11/07 17:15:33;;;;;;;;;;;;;;;;;;5133817;27;19939;-78
2021/11/07 17:18:03;;;;;;;;;;;;;;;;;;5134276;27;20057;-78
2021/11/07 17:23:42;;;;;;;;;;;;;;;;;;5050496;28;19925;-78
2021/11/07 17:26:12;;;;;;;;;;;;;;;;;;5050404;28;19924;-80
2021/11/07 17:28:45;;;;;;;;;;;;;;;;;;5095874;27;20355;-79
2021/11/07 17:31:17;;;;;;;;;;;;;;;;;;5133496;27;19938;-79
2021/11/07 17:33:50;;;;;;;;;;;;;;;;;;5133713;27;20258;-79
2021/11/07 17:36:24;;;;;;;;;;;;;;;;;;5133557;27;20050;-78
2021/11/07 17:38:59;;;;;;;;;;;;;;;;;;5133556;27;20135;-79
2021/11/07 17:49:59;;;;;;;;;;;;;;;;;;5133211;27;20023;-78
2021/11/07 17:55:16;;;;;;;;;;;;;;;;;;5133056;27;20027;-79
2021/11/07 17:57:43;;;;;;;;;;;;;;;;;;5133212;27;19927;-78
2021/11/07 18:00:13;;;;;;;;;;;;;;;;;;5133359;27;20358;-79
2021/11/07 18:02:41;;;;;;;;;;;;;;;;;;5133150;27;19923;-77
2021/11/07 18:05:08;;;;;;;;;;;;;;;;;;5132551;27;20399;-79
2021/11/07 18:07:44;;;;;;;;;;;;;;;;;;5132921;27;20399;-78
2021/11/07 18:10:14;;;;;;;;;;;;;;;;;;5133290;27;19924;-80
2021/11/07 18:12:46;;;;;;;;;;;;;;;;;;5123347;27;20135;-80
2021/11/07 18:15:13;;;;;;;;;;;;;;;;;;5132190;27;19931;-79
2021/11/07 18:17:41;;;;;;;;;;;;;;;;;;5133150;27;20268;-79